Mobile, AL (36601)

12:17 PM CST on February 11, 2016 (GMT -0600)
Downtown Waterfront | | Change Station
CLOSE
Current Station
Personal Weather Station
Location: Mobile, AL
Elevation: 13 ft
Nearby Weather Stations

Elev 13 ft 30.69 °N, 88.04 °W | Updated 10 seconds ago

Clear
Clear
68.0 °F
Feels Like 68.0 °F
N
10.0
Wind Variable Wind from SSW
Gusts 20.0 mph

Today
High -- | Low -- °F
--% Chance of Precip.
Yesterday
High -- | Low -- °F
Precip. -- in
Pressure 30.20 in
Visibility 10.0 miles
Clouds Few 4500 ft
Dew Point 52 °F
Humidity 56%
Rainfall 0.00 in
Snow Depth Not available.
6:36 AM 5:36 PM
Waxing Crescent, 13% visible
METAR KBFM 111753Z 25007G16KT 10SM FEW045 20/11 A3020 RMK AO2 SLP226 T02000106 10206 20028 58016
Pressure 30.20 in
Visibility 10.0 miles
Clouds Few 4500 ft
Dew Point 52 °F
Humidity 56%
Rainfall 0.00 in
Snow Depth Not available.
6:36 AM 5:36 PM
Waxing Crescent, 13% visible
METAR KBFM 111753Z 25007G16KT 10SM FEW045 20/11 A3020 RMK AO2 SLP226 T02000106 10206 20028 58016

10-Day Weather Forecast

Almanac

Astronomy

Feb. 11, 2016 Rise Set
Actual Time
Civil Twilight
Nautical Twilight
Astronomical Twilight
Moon
Length of Visible Light
Length of Day
Tomorrow will be .
, % of the Moon is Illuminated

Today's Extremes

State Highs State Lows

Community

WunderPhotos

Upload Photos

1,892,122 photos uploaded!

WunderBlog® & News

Nearby

Air Quality

  Air Quality AQ Index Pollutant
Not available.

Snow Depth

Station Depth Elevation

Earthquake Activity

City Distance Mag. Time & Date
Minimum magnitude displayed is 2.5.

Coastal Water Temperatures

Place Temperature

Stations

Nearby Weather Stations

Station Location Temp. Windchill Dew Point Humidity Wind Precip. Elev Updated Type
                   

Watches & Warnings

There are currently no watches in effect.